createdAt,value
2019-01-28T00:01:25.499Z,23.97
2019-01-28T00:03:57.335Z,21.60
2019-01-28T00:06:27.772Z,30.63
2019-01-28T00:08:59.537Z,23.87
2019-01-28T00:11:31.562Z,18.97
2019-01-28T00:14:01.965Z,28.33
2019-01-28T00:16:32.385Z,26.47
2019-01-28T00:19:02.939Z,27.80
2019-01-28T00:21:33.335Z,25.23
2019-01-28T00:24:05.415Z,30.82
2019-01-28T00:26:36.013Z,22.70
2019-01-28T00:29:07.216Z,24.02
2019-01-28T00:31:39.170Z,22.42
2019-01-28T00:34:10.200Z,23.95
2019-01-28T00:36:40.662Z,25.00
2019-01-28T00:39:11.159Z,18.10
2019-01-28T00:41:41.578Z,27.05
2019-01-28T00:44:12.322Z,23.30
2019-01-28T00:46:42.818Z,23.67
2019-01-28T00:49:13.322Z,24.87
2019-01-28T00:51:43.723Z,21.87
2019-01-28T00:54:14.311Z,14.10
2019-01-28T00:56:44.827Z,18.23
2019-01-28T00:59:15.469Z,19.73
2019-01-28T01:01:47.435Z,29.02
2019-01-28T01:04:19.418Z,22.82
2019-01-28T01:06:52.250Z,23.62
2019-01-28T01:09:23.270Z,25.87
2019-01-28T01:11:56.093Z,21.97
2019-01-28T01:14:26.648Z,17.50
2019-01-28T01:16:57.327Z,19.85
2019-01-28T01:19:28.134Z,17.47
2019-01-28T01:21:58.866Z,15.43
2019-01-28T01:24:29.470Z,20.57
2019-01-28T01:26:59.869Z,20.88
2019-01-28T01:29:31.625Z,22.85
2019-01-28T01:32:02.216Z,25.08
2019-01-28T01:34:32.390Z,19.70
2019-01-28T01:37:04.789Z,27.85
2019-01-28T01:39:36.549Z,24.70
2019-01-28T01:42:07.047Z,20.45
2019-01-28T01:44:39.090Z,19.42
2019-01-28T01:47:10.874Z,19.17
2019-01-28T01:49:42.952Z,27.10
2019-01-28T01:52:13.525Z,20.15
2019-01-28T01:54:44.007Z,20.20
2019-01-28T01:57:14.629Z,20.02
2019-01-28T01:59:44.839Z,18.77
2019-01-28T02:02:15.122Z,20.68
2019-01-28T02:04:45.389Z,17.02
2019-01-28T02:07:17.188Z,20.37
2019-01-28T02:09:47.594Z,21.27
2019-01-28T02:12:19.455Z,23.25
2019-01-28T02:14:49.830Z,19.30
2019-01-28T02:17:20.223Z,19.35
2019-01-28T02:19:53.303Z,21.15
2019-01-28T02:22:25.635Z,20.88
2019-01-28T02:24:56.341Z,24.05
2019-01-28T02:27:26.872Z,20.72
2019-01-28T02:29:57.266Z,25.72
2019-01-28T02:32:27.975Z,21.12
2019-01-28T02:35:00.400Z,18.42
2019-01-28T02:37:31.346Z,20.60
2019-01-28T02:40:03.390Z,19.32
2019-01-28T02:42:33.888Z,21.53
2019-01-28T02:45:05.619Z,24.12
2019-01-28T02:47:35.844Z,27.55
2019-01-28T02:50:13.207Z,25.62
2019-01-28T02:52:43.501Z,25.43
2019-01-28T02:55:15.289Z,26.97
2019-01-28T02:57:45.693Z,25.27
2019-01-28T03:00:23.832Z,24.55
2019-01-28T03:02:54.052Z,27.20
2019-01-28T03:05:24.955Z,25.02
2019-01-28T03:07:56.750Z,31.70
2019-01-28T03:10:28.351Z,24.98
2019-01-28T03:12:58.581Z,21.27
2019-01-28T03:15:30.458Z,26.40
2019-01-28T03:18:00.979Z,26.00
2019-01-28T03:20:31.241Z,26.90
2019-01-28T03:23:01.348Z,27.47
2019-01-28T03:25:31.389Z,23.98
2019-01-28T03:28:01.675Z,38.40
2019-01-28T03:30:31.932Z,22.40
2019-01-28T03:33:02.341Z,27.80
2019-01-28T03:35:32.661Z,24.37
2019-01-28T03:38:02.877Z,29.67
2019-01-28T03:40:32.874Z,24.77
2019-01-28T03:43:03.315Z,22.15
2019-01-28T03:45:33.714Z,29.52
2019-01-28T03:48:04.334Z,21.80
2019-01-28T03:50:34.575Z,27.75
2019-01-28T03:53:06.634Z,24.35
2019-01-28T03:55:37.008Z,19.05
2019-01-28T03:58:07.379Z,26.73
2019-01-28T04:00:37.810Z,24.65
2019-01-28T04:03:08.267Z,21.95
2019-01-28T04:05:38.727Z,33.18
2019-01-28T04:08:09.109Z,30.10
2019-01-28T04:10:39.506Z,25.23
2019-01-28T04:13:09.700Z,31.62
2019-01-28T04:15:40.241Z,28.30
2019-01-28T04:18:10.514Z,31.50
2019-01-28T04:20:40.736Z,29.10
2019-01-28T04:23:10.969Z,33.30
2019-01-28T04:25:41.417Z,26.05
2019-01-28T04:28:11.545Z,28.93
2019-01-28T04:30:41.632Z,32.13
2019-01-28T04:33:12.192Z,28.67
2019-01-28T04:35:42.282Z,28.90
2019-01-28T04:38:12.609Z,32.55
2019-01-28T04:40:43.290Z,32.80
2019-01-28T04:43:13.572Z,28.87
2019-01-28T04:45:43.998Z,28.05
2019-01-28T04:48:14.326Z,23.33
2019-01-28T04:50:44.840Z,25.50
2019-01-28T04:53:15.088Z,30.12
2019-01-28T04:55:45.170Z,25.13
2019-01-28T04:58:15.324Z,27.55
2019-01-28T05:00:45.606Z,29.77
2019-01-28T05:03:16.389Z,26.77
2019-01-28T05:05:46.531Z,27.10
2019-01-28T05:08:16.819Z,25.27
2019-01-28T05:10:47.168Z,27.75
2019-01-28T05:13:17.442Z,28.77
2019-01-28T05:15:47.647Z,29.12
2019-01-28T05:18:17.754Z,28.62
2019-01-28T05:20:47.951Z,27.37
2019-01-28T05:23:17.968Z,28.05
2019-01-28T05:25:48.664Z,32.17
2019-01-28T05:28:18.913Z,27.95
2019-01-28T05:30:49.452Z,22.77
2019-01-28T05:33:20.174Z,24.10
2019-01-28T05:35:50.506Z,27.07
2019-01-28T05:38:20.907Z,27.15
2019-01-28T05:40:51.246Z,28.50
2019-01-28T05:43:21.526Z,30.30
2019-01-28T05:45:51.520Z,28.17
2019-01-28T05:48:22.452Z,28.25
2019-01-28T05:50:52.688Z,28.73
2019-01-28T05:53:22.867Z,27.87
2019-01-28T05:55:53.043Z,29.82
2019-01-28T05:58:23.364Z,24.75
2019-01-28T06:00:53.646Z,30.27
2019-01-28T06:03:23.891Z,34.33
2019-01-28T06:05:54.373Z,31.30
2019-01-28T06:08:24.534Z,28.30
2019-01-28T06:10:54.565Z,28.15
2019-01-28T06:13:24.822Z,28.95
2019-01-28T06:15:54.857Z,32.48
2019-01-28T06:18:25.528Z,27.98
2019-01-28T06:20:55.731Z,28.67
2019-01-28T06:23:25.839Z,28.98
2019-01-28T06:25:56.164Z,35.10
2019-01-28T06:28:26.640Z,29.02
2019-01-28T06:30:56.927Z,31.87
2019-01-28T06:33:27.481Z,23.63
2019-01-28T06:35:57.764Z,31.77
2019-01-28T06:38:27.759Z,29.40
2019-01-28T06:40:58.137Z,28.83
2019-01-28T06:43:28.449Z,34.23
2019-01-28T06:45:58.774Z,29.42
2019-01-28T06:48:28.986Z,29.00
2019-01-28T06:50:59.203Z,31.90
2019-01-28T06:53:29.327Z,31.00
2019-01-28T06:55:59.506Z,30.23
2019-01-28T06:58:29.917Z,30.12
2019-01-28T07:01:01.741Z,27.00
2019-01-28T07:03:32.109Z,30.60
2019-01-28T07:06:02.777Z,29.30
2019-01-28T07:08:33.136Z,29.65
2019-01-28T07:11:03.701Z,35.70
2019-01-28T07:13:34.714Z,30.32
2019-01-28T07:16:05.204Z,35.92
2019-01-28T07:18:35.697Z,33.17
2019-01-28T07:21:06.298Z,29.20
2019-01-28T07:23:36.948Z,39.63
2019-01-28T07:26:07.386Z,30.70
2019-01-28T07:28:38.068Z,26.90
2019-01-28T07:31:08.943Z,31.23
2019-01-28T07:33:39.606Z,26.83
2019-01-28T07:36:10.038Z,29.60
2019-01-28T07:38:40.402Z,33.02
2019-01-28T07:41:10.536Z,31.70
2019-01-28T07:43:40.956Z,29.63
2019-01-28T07:46:11.602Z,34.38
2019-01-28T07:48:42.145Z,38.33
2019-01-28T07:51:12.407Z,30.80
2019-01-28T07:53:42.823Z,36.68
2019-01-28T07:56:14.757Z,32.67
2019-01-28T07:58:45.818Z,32.03
2019-01-28T08:01:16.280Z,36.97
2019-01-28T08:03:46.454Z,38.97
2019-01-28T08:06:16.612Z,37.90
2019-01-28T08:08:46.994Z,30.55
2019-01-28T08:11:17.295Z,41.75
2019-01-28T08:13:47.781Z,38.02
2019-01-28T08:16:18.243Z,39.23
2019-01-28T08:18:48.517Z,37.27
2019-01-28T08:21:18.921Z,38.37
2019-01-28T08:23:49.055Z,43.75
2019-01-28T08:26:19.276Z,40.77
2019-01-28T08:28:49.566Z,42.57
2019-01-28T08:31:19.824Z,35.13
2019-01-28T08:33:50.013Z,38.63
2019-01-28T08:36:20.189Z,33.60
2019-01-28T08:38:51.067Z,36.17
2019-01-28T08:41:21.350Z,40.17
2019-01-28T08:43:51.878Z,42.93
2019-01-28T08:46:22.965Z,41.90
2019-01-28T08:48:53.265Z,40.27
2019-01-28T08:51:23.631Z,47.53
2019-01-28T08:53:53.969Z,40.90
2019-01-28T08:56:24.291Z,34.70
2019-01-28T08:58:54.902Z,41.68
2019-01-28T09:01:25.084Z,40.60
2019-01-28T09:03:55.433Z,32.10
2019-01-28T09:06:25.914Z,35.73
2019-01-28T09:08:56.226Z,49.73
2019-01-28T09:11:26.321Z,40.25
2019-01-28T09:13:56.530Z,37.20
2019-01-28T09:16:26.665Z,36.50
2019-01-28T09:18:56.778Z,37.73
2019-01-28T09:21:27.300Z,42.73
2019-01-28T09:23:57.627Z,40.07
2019-01-28T09:26:27.794Z,36.20
2019-01-28T09:28:57.907Z,39.93
2019-01-28T09:31:28.083Z,40.30
2019-01-28T09:33:58.220Z,39.97
2019-01-28T09:36:28.226Z,49.97
2019-01-28T09:38:58.716Z,36.53
2019-01-28T09:41:29.054Z,36.67
2019-01-28T09:43:59.236Z,36.23
2019-01-28T09:46:29.648Z,48.30
2019-01-28T09:49:00.145Z,38.07
2019-01-28T09:51:30.492Z,31.20
2019-01-28T09:54:00.793Z,33.37
2019-01-28T09:56:31.166Z,34.27
2019-01-28T09:59:01.735Z,32.23
2019-01-28T10:01:32.057Z,34.87
2019-01-28T10:04:04.108Z,36.53
2019-01-28T10:06:34.784Z,36.90
2019-01-28T10:09:10.175Z,31.50
2019-01-28T10:11:39.936Z,43.47
2019-01-28T10:14:10.239Z,35.00
2019-01-28T10:16:40.506Z,30.90
2019-01-28T10:19:10.714Z,34.17
2019-01-28T10:21:41.247Z,31.97
2019-01-28T10:24:11.460Z,27.17
2019-01-28T10:26:43.032Z,29.70
2019-01-28T10:29:13.166Z,31.67
2019-01-28T10:31:43.560Z,26.43
2019-01-28T10:34:13.587Z,29.90
2019-01-28T10:36:43.595Z,29.20
2019-01-28T10:39:13.885Z,30.37
2019-01-28T10:41:43.992Z,28.63
2019-01-28T10:44:14.368Z,31.53
2019-01-28T10:46:44.732Z,28.40
2019-01-28T10:49:14.972Z,28.33
2019-01-28T10:51:45.215Z,28.97
2019-01-28T10:54:15.551Z,29.67
2019-01-28T10:56:45.706Z,30.57
2019-01-28T10:59:16.234Z,27.73
2019-01-28T11:01:46.628Z,27.23
2019-01-28T11:04:16.911Z,27.90
2019-01-28T11:06:47.830Z,29.20
2019-01-28T11:09:18.316Z,29.80
2019-01-28T11:11:48.679Z,30.57
2019-01-28T11:14:18.814Z,30.53
2019-01-28T11:16:49.377Z,33.53
2019-01-28T11:19:19.975Z,30.17
2019-01-28T11:21:50.596Z,31.00
2019-01-28T11:24:21.001Z,35.93
2019-01-28T11:26:51.725Z,38.23
2019-01-28T11:29:21.791Z,39.10
2019-01-28T11:31:52.667Z,36.33
2019-01-28T11:34:22.937Z,50.17
2019-01-28T11:36:53.257Z,32.93
2019-01-28T11:39:23.598Z,39.30
2019-01-28T11:41:53.807Z,46.10
2019-01-28T11:44:24.857Z,37.23
2019-01-28T11:46:55.639Z,43.40
2019-01-28T11:49:26.019Z,37.50
2019-01-28T11:51:56.445Z,38.30
2019-01-28T11:54:26.872Z,37.87
2019-01-28T11:56:57.272Z,35.83
2019-01-28T11:59:27.673Z,43.87
2019-01-28T12:01:58.371Z,41.10
2019-01-28T12:04:28.734Z,44.23
2019-01-28T12:06:58.916Z,46.87
2019-01-28T12:09:28.915Z,45.60
2019-01-28T12:11:59.337Z,33.23
2019-01-28T12:14:29.915Z,33.33
2019-01-28T12:16:59.842Z,56.83
2019-01-28T12:19:30.085Z,45.57
2019-01-28T12:22:00.428Z,39.73
2019-01-28T12:24:30.516Z,37.23
2019-01-28T12:27:00.942Z,34.53
2019-01-28T12:29:32.714Z,35.20
2019-01-28T12:32:03.265Z,37.00
2019-01-28T12:34:33.503Z,35.70
2019-01-28T12:37:04.026Z,38.87
2019-01-28T12:39:34.092Z,32.07
2019-01-28T12:42:05.803Z,32.73
2019-01-28T12:44:36.312Z,35.37
2019-01-28T12:47:06.245Z,32.00
2019-01-28T12:49:36.378Z,35.70
2019-01-28T12:52:06.694Z,34.00
2019-01-28T12:54:36.986Z,38.63
2019-01-28T12:57:07.510Z,38.90
2019-01-28T12:59:38.336Z,39.57
2019-01-28T13:02:08.965Z,43.93
2019-01-28T13:04:42.204Z,39.53
2019-01-28T13:07:10.837Z,33.53
2019-01-28T13:09:41.130Z,61.87
2019-01-28T13:12:11.487Z,40.37
2019-01-28T13:14:41.521Z,32.73
2019-01-28T13:17:11.727Z,36.33
2019-01-28T13:19:41.995Z,39.17
2019-01-28T13:22:12.311Z,37.87
2019-01-28T13:24:42.332Z,33.57
2019-01-28T13:27:12.660Z,33.43
2019-01-28T13:29:44.440Z,37.23
2019-01-28T13:32:14.860Z,30.40
2019-01-28T13:34:45.165Z,33.13
2019-01-28T13:37:15.392Z,32.83
2019-01-28T13:39:45.495Z,34.53
2019-01-28T13:42:15.844Z,28.87
2019-01-28T13:44:47.165Z,30.27
2019-01-28T13:47:17.825Z,28.70
2019-01-28T13:49:48.055Z,29.70
2019-01-28T13:52:18.535Z,30.70
2019-01-28T13:54:49.001Z,31.53
2019-01-28T13:57:19.660Z,33.10
2019-01-28T13:59:49.961Z,31.07
2019-01-28T14:02:20.412Z,33.07
2019-01-28T14:04:50.873Z,31.70
2019-01-28T14:07:21.370Z,33.17
2019-01-28T14:09:51.931Z,34.43
2019-01-28T14:12:22.166Z,33.57
2019-01-28T14:14:52.366Z,33.30
2019-01-28T14:17:22.535Z,33.07
2019-01-28T14:19:53.163Z,33.40
2019-01-28T14:22:23.348Z,39.30
2019-01-28T14:24:54.525Z,34.23
2019-01-28T14:27:24.867Z,34.20
2019-01-28T14:29:55.289Z,37.90
2019-01-28T14:32:25.861Z,36.40
2019-01-28T14:34:56.445Z,33.03
2019-01-28T14:37:26.532Z,36.17
2019-01-28T14:39:56.909Z,33.33
2019-01-28T14:42:27.461Z,35.37
2019-01-28T14:44:57.701Z,35.03
2019-01-28T14:47:27.780Z,34.07
2019-01-28T14:49:57.923Z,38.10
2019-01-28T14:52:27.973Z,37.87
2019-01-28T14:54:58.390Z,33.37
2019-01-28T14:57:28.797Z,33.57
2019-01-28T14:59:59.460Z,36.53
2019-01-28T15:02:30.062Z,36.90
2019-01-28T15:05:00.673Z,35.87
2019-01-28T15:07:31.520Z,39.17
2019-01-28T15:10:01.763Z,33.73
2019-01-28T15:12:32.178Z,42.53
2019-01-28T15:15:02.753Z,37.60
2019-01-28T15:17:32.974Z,37.07
2019-01-28T15:20:03.726Z,45.03
2019-01-28T15:22:33.964Z,40.47
2019-01-28T15:25:04.901Z,36.60
2019-01-28T15:27:35.220Z,36.93
2019-01-28T15:30:08.253Z,43.83
2019-01-28T15:32:38.946Z,38.67
2019-01-28T15:35:11.330Z,36.40
2019-01-28T15:37:41.548Z,40.57
2019-01-28T15:40:18.449Z,39.57
2019-01-28T15:42:48.702Z,37.20
2019-01-28T15:45:21.737Z,35.03
2019-01-28T15:47:52.555Z,41.37
2019-01-28T15:50:23.344Z,39.63
2019-01-28T15:52:54.068Z,37.60
2019-01-28T15:55:35.738Z,38.80
2019-01-28T15:58:06.717Z,40.73
2019-01-28T16:00:39.643Z,47.27
2019-01-28T16:03:09.971Z,40.07
2019-01-28T16:05:40.419Z,41.47
2019-01-28T16:08:10.870Z,36.23
2019-01-28T16:10:41.074Z,43.00
2019-01-28T16:13:11.387Z,40.87
2019-01-28T16:15:44.098Z,48.30
2019-01-28T16:18:14.378Z,23.83
2019-01-28T16:20:44.757Z,20.17
2019-01-28T16:23:15.319Z,12.47
2019-01-28T16:25:45.697Z,10.67
2019-01-28T16:28:16.275Z,10.73
2019-01-28T16:30:48.380Z,9.40
2019-01-28T16:33:18.476Z,10.90
2019-01-28T16:35:48.551Z,8.60
2019-01-28T16:38:19.887Z,13.90
2019-01-28T16:40:50.268Z,9.67
2019-01-28T16:43:20.879Z,8.77
2019-01-28T16:45:51.196Z,10.18
2019-01-28T16:48:21.452Z,11.55
2019-01-28T16:50:52.043Z,10.08
2019-01-28T16:53:22.423Z,9.93
2019-01-28T16:55:52.723Z,12.37
2019-01-28T16:58:23.270Z,12.05
2019-01-28T17:00:53.768Z,12.30
2019-01-28T17:03:24.029Z,12.23
2019-01-28T17:05:54.703Z,12.45
2019-01-28T17:08:25.476Z,11.65
2019-01-28T17:10:55.863Z,13.75
2019-01-28T17:13:26.273Z,12.55
2019-01-28T17:15:56.439Z,11.90
2019-01-28T17:18:27.039Z,13.35
2019-01-28T17:20:58.857Z,14.03
2019-01-28T17:23:29.502Z,15.43
2019-01-28T17:25:59.853Z,12.78
2019-01-28T17:28:30.064Z,15.08
2019-01-28T17:31:00.452Z,15.35
2019-01-28T17:33:30.697Z,13.45
2019-01-28T17:36:00.836Z,13.38
2019-01-28T17:38:31.033Z,15.90
2019-01-28T17:41:01.142Z,13.15
2019-01-28T17:43:31.219Z,14.33
2019-01-28T17:46:01.383Z,13.00
2019-01-28T17:48:32.575Z,12.25
2019-01-28T17:51:02.875Z,14.83
2019-01-28T17:53:33.055Z,12.30
2019-01-28T17:56:03.335Z,10.35
2019-01-28T17:58:33.446Z,11.90
2019-01-28T18:01:03.705Z,8.68
2019-01-28T18:03:33.939Z,12.53
2019-01-28T18:06:03.961Z,11.88
2019-01-28T18:08:34.170Z,11.05
2019-01-28T18:11:04.943Z,9.58
2019-01-28T18:13:35.051Z,10.72
2019-01-28T18:16:05.446Z,11.03
2019-01-28T18:18:35.431Z,11.95
2019-01-28T18:21:06.015Z,11.22
2019-01-28T18:23:37.793Z,13.88
2019-01-28T18:26:08.365Z,11.73
2019-01-28T18:28:38.527Z,11.00
2019-01-28T18:31:08.756Z,11.28
2019-01-28T18:33:39.070Z,12.03
2019-01-28T18:36:09.267Z,11.65
2019-01-28T18:38:39.658Z,14.05
2019-01-28T18:41:09.875Z,14.98
2019-01-28T18:43:39.961Z,13.72
2019-01-28T18:46:10.269Z,12.63
2019-01-28T18:48:40.491Z,10.85
2019-01-28T18:51:10.945Z,10.13
2019-01-28T18:53:41.061Z,13.93
2019-01-28T18:56:11.377Z,14.87
2019-01-28T18:58:41.897Z,11.60
2019-01-28T19:01:12.439Z,12.68
2019-01-28T19:03:42.495Z,16.23
2019-01-28T19:06:14.372Z,12.98
2019-01-28T19:08:52.345Z,15.85
2019-01-28T19:11:30.544Z,12.58
2019-01-28T19:14:11.776Z,15.98
2019-01-28T19:16:55.658Z,14.98
2019-01-28T19:19:30.754Z,13.58
2019-01-28T19:22:03.102Z,14.75
2019-01-28T19:24:33.743Z,10.88
2019-01-28T19:27:04.148Z,13.78
2019-01-28T19:29:34.316Z,11.12
2019-01-28T19:32:04.673Z,14.03
2019-01-28T19:34:35.039Z,14.30
2019-01-28T19:37:05.337Z,11.30
2019-01-28T19:39:35.714Z,11.78
2019-01-28T19:42:06.690Z,18.15
2019-01-28T19:44:37.290Z,17.67
2019-01-28T19:47:07.526Z,13.25
2019-01-28T19:49:37.720Z,11.22
2019-01-28T19:52:07.984Z,14.68
2019-01-28T19:54:38.262Z,11.85
2019-01-28T19:57:08.639Z,11.38
2019-01-28T19:59:38.855Z,12.13
2019-01-28T20:02:09.013Z,13.50
2019-01-28T20:04:39.342Z,12.82
2019-01-28T20:07:09.680Z,12.25
2019-01-28T20:09:40.154Z,11.68
2019-01-28T20:12:12.273Z,12.95
2019-01-28T20:14:43.607Z,13.10
2019-01-28T20:17:13.961Z,11.68
2019-01-28T20:19:44.273Z,10.85
2019-01-28T20:22:14.607Z,12.55
2019-01-28T20:24:44.877Z,15.90
2019-01-28T20:27:15.092Z,13.60
2019-01-28T20:29:45.648Z,10.93
2019-01-28T20:32:16.154Z,12.33
2019-01-28T20:34:47.108Z,10.55
2019-01-28T20:37:17.211Z,11.00
2019-01-28T20:39:47.612Z,10.00
2019-01-28T20:42:17.942Z,12.37
2019-01-28T20:44:48.568Z,9.83
2019-01-28T20:47:18.724Z,14.80
2019-01-28T20:49:48.944Z,15.70
2019-01-28T20:52:19.620Z,15.55
2019-01-28T20:54:49.846Z,10.78
2019-01-28T20:57:22.360Z,11.10
2019-01-28T20:59:52.642Z,12.45
2019-01-28T21:02:23.174Z,12.23
2019-01-28T21:04:53.610Z,13.38
2019-01-28T21:07:24.130Z,11.45
2019-01-28T21:09:54.246Z,11.22
2019-01-28T21:12:24.821Z,12.23
2019-01-28T21:14:55.397Z,9.73
2019-01-28T21:17:25.619Z,11.28
2019-01-28T21:19:55.697Z,11.65
2019-01-28T21:22:26.007Z,11.08
2019-01-28T21:24:56.240Z,9.73
2019-01-28T21:27:26.927Z,10.93
2019-01-28T21:29:57.117Z,10.10
2019-01-28T21:32:27.357Z,9.90
2019-01-28T21:34:57.771Z,11.03
2019-01-28T21:37:28.764Z,9.35
2019-01-28T21:40:00.447Z,10.13
2019-01-28T21:42:31.310Z,9.43
2019-01-28T21:45:02.133Z,10.88
2019-01-28T21:47:32.368Z,10.85
2019-01-28T21:50:03.394Z,7.92
2019-01-28T21:52:33.784Z,10.72
2019-01-28T21:55:06.223Z,7.65
2019-01-28T21:57:36.326Z,9.13
2019-01-28T22:00:12.084Z,8.18
2019-01-28T22:02:42.402Z,8.60
2019-01-28T22:05:13.932Z,8.35
2019-01-28T22:07:46.182Z,11.18
2019-01-28T22:10:16.807Z,8.28
2019-01-28T22:12:47.229Z,9.95
2019-01-28T22:15:18.409Z,7.55
2019-01-28T22:17:48.619Z,7.37
2019-01-28T22:20:18.824Z,8.93
2019-01-28T22:22:49.080Z,10.78
2019-01-28T22:25:20.929Z,10.18
2019-01-28T22:27:57.215Z,11.48
2019-01-28T22:30:24.079Z,13.00
2019-01-28T22:32:54.130Z,10.58
2019-01-28T22:35:24.629Z,12.98
2019-01-28T22:37:54.691Z,10.15
2019-01-28T22:40:25.069Z,10.00
2019-01-28T22:42:55.045Z,13.08
2019-01-28T22:45:25.329Z,11.38
2019-01-28T22:47:55.689Z,10.60
2019-01-28T22:50:26.040Z,8.85
2019-01-28T22:52:56.470Z,10.65
2019-01-28T22:55:27.012Z,8.33
2019-01-28T22:57:57.515Z,10.68
2019-01-28T23:00:49.989Z,12.55
2019-01-28T23:03:22.155Z,8.80
2019-01-28T23:05:52.663Z,9.18
2019-01-28T23:08:23.088Z,8.40
2019-01-28T23:10:53.615Z,10.75
2019-01-28T23:13:24.090Z,9.95
2019-01-28T23:15:54.615Z,7.78
2019-01-28T23:18:25.452Z,11.33
2019-01-28T23:20:56.105Z,9.15
2019-01-28T23:23:26.496Z,8.80
2019-01-28T23:25:57.255Z,10.82
2019-01-28T23:28:27.692Z,10.68
2019-01-28T23:30:58.244Z,15.60
2019-01-28T23:33:28.936Z,10.38
2019-01-28T23:36:00.345Z,11.48
2019-01-28T23:38:30.604Z,8.33
2019-01-28T23:41:00.909Z,11.08
2019-01-28T23:43:31.105Z,8.80
2019-01-28T23:46:01.151Z,11.70
2019-01-28T23:48:31.411Z,9.45
2019-01-28T23:51:01.666Z,12.82
2019-01-28T23:53:31.925Z,9.00
2019-01-28T23:56:02.441Z,10.43
2019-01-28T23:58:32.749Z,10.32
